sensor_id;sensor_type;location;lat;lon;timestamp;P1;durP1;ratioP1;P2;durP2;ratioP2
4305;SDS011;2166;49.926;8.608;2023-07-20T00:00:02;3.67;;;1.77;;
4305;SDS011;2166;49.926;8.608;2023-07-20T00:02:38;5.15;;;1.90;;
4305;SDS011;2166;49.926;8.608;2023-07-20T00:05:07;5.63;;;2.15;;
4305;SDS011;2166;49.926;8.608;2023-07-20T00:07:35;5.45;;;2.10;;
4305;SDS011;2166;49.926;8.608;2023-07-20T00:10:04;7.32;;;1.90;;
4305;SDS011;2166;49.926;8.608;2023-07-20T00:12:34;4.00;;;1.98;;
4305;SDS011;2166;49.926;8.608;2023-07-20T00:15:07;4.50;;;1.85;;
4305;SDS011;2166;49.926;8.608;2023-07-20T00:17:35;5.22;;;1.80;;
4305;SDS011;2166;49.926;8.608;2023-07-20T00:20:07;6.63;;;2.20;;
4305;SDS011;2166;49.926;8.608;2023-07-20T00:22:36;5.80;;;1.85;;
4305;SDS011;2166;49.926;8.608;2023-07-20T00:25:04;4.90;;;2.60;;
4305;SDS011;2166;49.926;8.608;2023-07-20T00:27:34;9.45;;;2.70;;
4305;SDS011;2166;49.926;8.608;2023-07-20T00:30:03;4.15;;;2.40;;
4305;SDS011;2166;49.926;8.608;2023-07-20T00:32:33;7.47;;;2.30;;
4305;SDS011;2166;49.926;8.608;2023-07-20T00:35:02;6.07;;;2.03;;
4305;SDS011;2166;49.926;8.608;2023-07-20T00:37:31;4.72;;;2.22;;
4305;SDS011;2166;49.926;8.608;2023-07-20T00:40:00;4.93;;;2.55;;
4305;SDS011;2166;49.926;8.608;2023-07-20T00:42:30;4.28;;;2.35;;
4305;SDS011;2166;49.926;8.608;2023-07-20T00:44:59;3.50;;;1.67;;
4305;SDS011;2166;49.926;8.608;2023-07-20T00:47:28;5.03;;;2.13;;
4305;SDS011;2166;49.926;8.608;2023-07-20T00:49:59;6.78;;;2.45;;
4305;SDS011;2166;49.926;8.608;2023-07-20T00:52:31;4.57;;;2.53;;
4305;SDS011;2166;49.926;8.608;2023-07-20T00:54:59;4.20;;;2.33;;
4305;SDS011;2166;49.926;8.608;2023-07-20T00:57:29;8.57;;;2.58;;
4305;SDS011;2166;49.926;8.608;2023-07-20T00:59:59;10.38;;;2.38;;
4305;SDS011;2166;49.926;8.608;2023-07-20T01:02:27;4.53;;;2.05;;
4305;SDS011;2166;49.926;8.608;2023-07-20T01:04:56;4.95;;;2.25;;
4305;SDS011;2166;49.926;8.608;2023-07-20T01:07:26;5.20;;;2.50;;
4305;SDS011;2166;49.926;8.608;2023-07-20T01:10:01;3.22;;;1.95;;
4305;SDS011;2166;49.926;8.608;2023-07-20T01:12:40;5.63;;;2.53;;
4305;SDS011;2166;49.926;8.608;2023-07-20T01:15:10;6.38;;;3.00;;
4305;SDS011;2166;49.926;8.608;2023-07-20T01:17:38;6.95;;;2.90;;
4305;SDS011;2166;49.926;8.608;2023-07-20T01:20:08;10.48;;;2.92;;
4305;SDS011;2166;49.926;8.608;2023-07-20T01:25:53;3.53;;;2.33;;
4305;SDS011;2166;49.926;8.608;2023-07-20T01:31:38;7.05;;;2.95;;
4305;SDS011;2166;49.926;8.608;2023-07-20T01:34:07;7.18;;;2.60;;
4305;SDS011;2166;49.926;8.608;2023-07-20T01:36:40;6.50;;;2.60;;
4305;SDS011;2166;49.926;8.608;2023-07-20T01:39:11;9.32;;;2.67;;
4305;SDS011;2166;49.926;8.608;2023-07-20T01:41:40;7.32;;;2.70;;
4305;SDS011;2166;49.926;8.608;2023-07-20T01:44:10;6.43;;;2.60;;
4305;SDS011;2166;49.926;8.608;2023-07-20T01:46:39;4.65;;;2.42;;
4305;SDS011;2166;49.926;8.608;2023-07-20T01:49:08;8.25;;;3.03;;
4305;SDS011;2166;49.926;8.608;2023-07-20T01:51:36;6.95;;;3.10;;
4305;SDS011;2166;49.926;8.608;2023-07-20T01:54:05;7.75;;;2.80;;
4305;SDS011;2166;49.926;8.608;2023-07-20T01:56:35;9.45;;;2.88;;
4305;SDS011;2166;49.926;8.608;2023-07-20T01:59:04;8.20;;;2.50;;
4305;SDS011;2166;49.926;8.608;2023-07-20T02:01:33;6.15;;;3.00;;
4305;SDS011;2166;49.926;8.608;2023-07-20T02:04:03;11.45;;;3.10;;
4305;SDS011;2166;49.926;8.608;2023-07-20T02:06:31;11.75;;;3.17;;
4305;SDS011;2166;49.926;8.608;2023-07-20T02:09:00;7.72;;;3.45;;
4305;SDS011;2166;49.926;8.608;2023-07-20T02:11:30;5.97;;;3.45;;
4305;SDS011;2166;49.926;8.608;2023-07-20T02:13:59;7.38;;;3.20;;
4305;SDS011;2166;49.926;8.608;2023-07-20T02:16:27;7.68;;;3.20;;
4305;SDS011;2166;49.926;8.608;2023-07-20T02:18:56;8.98;;;3.45;;
4305;SDS011;2166;49.926;8.608;2023-07-20T02:21:26;6.32;;;2.88;;
4305;SDS011;2166;49.926;8.608;2023-07-20T02:23:54;8.13;;;3.55;;
4305;SDS011;2166;49.926;8.608;2023-07-20T02:26:23;5.15;;;3.13;;
4305;SDS011;2166;49.926;8.608;2023-07-20T02:28:51;6.60;;;2.92;;
4305;SDS011;2166;49.926;8.608;2023-07-20T02:31:20;8.07;;;3.17;;
4305;SDS011;2166;49.926;8.608;2023-07-20T02:33:48;4.18;;;2.70;;
4305;SDS011;2166;49.926;8.608;2023-07-20T02:36:16;8.65;;;3.05;;
4305;SDS011;2166;49.926;8.608;2023-07-20T02:38:48;7.13;;;3.10;;
4305;SDS011;2166;49.926;8.608;2023-07-20T02:41:16;5.30;;;3.05;;
4305;SDS011;2166;49.926;8.608;2023-07-20T02:43:45;7.80;;;3.25;;
4305;SDS011;2166;49.926;8.608;2023-07-20T02:46:15;9.75;;;3.20;;
4305;SDS011;2166;49.926;8.608;2023-07-20T02:48:44;8.27;;;3.13;;
4305;SDS011;2166;49.926;8.608;2023-07-20T02:51:12;4.05;;;3.20;;
4305;SDS011;2166;49.926;8.608;2023-07-20T02:53:43;6.72;;;3.10;;
4305;SDS011;2166;49.926;8.608;2023-07-20T02:56:13;9.85;;;3.80;;
4305;SDS011;2166;49.926;8.608;2023-07-20T02:58:42;6.90;;;3.33;;
4305;SDS011;2166;49.926;8.608;2023-07-20T03:01:12;5.30;;;2.83;;
4305;SDS011;2166;49.926;8.608;2023-07-20T03:03:42;7.03;;;2.72;;
4305;SDS011;2166;49.926;8.608;2023-07-20T03:06:13;6.15;;;3.13;;
4305;SDS011;2166;49.926;8.608;2023-07-20T03:08:42;6.60;;;3.20;;
4305;SDS011;2166;49.926;8.608;2023-07-20T03:11:16;6.03;;;3.13;;
4305;SDS011;2166;49.926;8.608;2023-07-20T03:13:44;7.15;;;2.70;;
4305;SDS011;2166;49.926;8.608;2023-07-20T03:16:13;9.15;;;4.03;;
4305;SDS011;2166;49.926;8.608;2023-07-20T03:18:47;5.50;;;3.03;;
4305;SDS011;2166;49.926;8.608;2023-07-20T03:21:15;6.22;;;3.13;;
4305;SDS011;2166;49.926;8.608;2023-07-20T03:23:45;6.32;;;3.22;;
4305;SDS011;2166;49.926;8.608;2023-07-20T03:26:15;5.75;;;3.05;;
4305;SDS011;2166;49.926;8.608;2023-07-20T03:28:44;4.97;;;2.60;;
4305;SDS011;2166;49.926;8.608;2023-07-20T03:31:12;9.90;;;2.88;;
4305;SDS011;2166;49.926;8.608;2023-07-20T03:33:43;8.05;;;2.72;;
4305;SDS011;2166;49.926;8.608;2023-07-20T03:36:11;7.75;;;2.72;;
4305;SDS011;2166;49.926;8.608;2023-07-20T03:38:40;9.15;;;3.03;;
4305;SDS011;2166;49.926;8.608;2023-07-20T03:41:08;4.32;;;2.53;;
4305;SDS011;2166;49.926;8.608;2023-07-20T03:43:39;9.73;;;3.40;;
4305;SDS011;2166;49.926;8.608;2023-07-20T03:46:08;11.10;;;3.33;;
4305;SDS011;2166;49.926;8.608;2023-07-20T03:48:37;8.55;;;3.17;;
4305;SDS011;2166;49.926;8.608;2023-07-20T03:51:07;5.00;;;2.90;;
4305;SDS011;2166;49.926;8.608;2023-07-20T03:53:35;5.97;;;2.70;;
4305;SDS011;2166;49.926;8.608;2023-07-20T03:56:03;6.43;;;2.85;;
4305;SDS011;2166;49.926;8.608;2023-07-20T03:58:32;7.38;;;3.28;;
4305;SDS011;2166;49.926;8.608;2023-07-20T04:01:03;7.57;;;3.67;;
4305;SDS011;2166;49.926;8.608;2023-07-20T04:03:32;9.13;;;3.83;;
4305;SDS011;2166;49.926;8.608;2023-07-20T04:06:00;11.98;;;3.67;;
4305;SDS011;2166;49.926;8.608;2023-07-20T04:08:29;7.65;;;2.72;;
4305;SDS011;2166;49.926;8.608;2023-07-20T04:11:00;6.28;;;3.05;;
4305;SDS011;2166;49.926;8.608;2023-07-20T04:13:29;11.02;;;3.47;;
4305;SDS011;2166;49.926;8.608;2023-07-20T04:16:00;6.03;;;3.03;;
4305;SDS011;2166;49.926;8.608;2023-07-20T04:18:30;6.00;;;3.00;;
4305;SDS011;2166;49.926;8.608;2023-07-20T04:20:58;7.50;;;3.35;;
4305;SDS011;2166;49.926;8.608;2023-07-20T04:23:27;8.15;;;3.17;;
4305;SDS011;2166;49.926;8.608;2023-07-20T04:25:55;7.40;;;3.30;;
4305;SDS011;2166;49.926;8.608;2023-07-20T04:28:24;8.18;;;3.20;;
4305;SDS011;2166;49.926;8.608;2023-07-20T04:30:52;4.65;;;3.10;;
4305;SDS011;2166;49.926;8.608;2023-07-20T04:33:22;6.30;;;3.08;;
4305;SDS011;2166;49.926;8.608;2023-07-20T04:35:51;7.20;;;3.30;;
4305;SDS011;2166;49.926;8.608;2023-07-20T04:38:29;7.60;;;3.50;;
4305;SDS011;2166;49.926;8.608;2023-07-20T04:41:06;11.07;;;3.50;;
4305;SDS011;2166;49.926;8.608;2023-07-20T04:43:44;7.05;;;3.25;;
4305;SDS011;2166;49.926;8.608;2023-07-20T04:46:17;8.95;;;2.72;;
4305;SDS011;2166;49.926;8.608;2023-07-20T04:48:51;4.82;;;2.72;;
4305;SDS011;2166;49.926;8.608;2023-07-20T04:51:19;4.88;;;2.40;;
4305;SDS011;2166;49.926;8.608;2023-07-20T04:53:52;5.22;;;2.92;;
4305;SDS011;2166;49.926;8.608;2023-07-20T04:56:20;7.47;;;2.60;;
4305;SDS011;2166;49.926;8.608;2023-07-20T04:58:51;6.10;;;2.90;;
4305;SDS011;2166;49.926;8.608;2023-07-20T05:01:20;5.57;;;2.92;;
4305;SDS011;2166;49.926;8.608;2023-07-20T05:03:50;4.97;;;2.60;;
4305;SDS011;2166;49.926;8.608;2023-07-20T05:06:21;4.75;;;2.40;;
4305;SDS011;2166;49.926;8.608;2023-07-20T05:08:50;6.53;;;3.05;;
4305;SDS011;2166;49.926;8.608;2023-07-20T05:11:19;5.05;;;2.60;;
4305;SDS011;2166;49.926;8.608;2023-07-20T05:13:47;4.28;;;2.20;;
4305;SDS011;2166;49.926;8.608;2023-07-20T05:16:16;4.78;;;2.50;;
4305;SDS011;2166;49.926;8.608;2023-07-20T05:18:45;11.65;;;2.80;;
4305;SDS011;2166;49.926;8.608;2023-07-20T05:21:17;4.00;;;2.50;;
4305;SDS011;2166;49.926;8.608;2023-07-20T05:23:46;7.68;;;2.47;;
4305;SDS011;2166;49.926;8.608;2023-07-20T05:26:14;5.18;;;2.58;;
4305;SDS011;2166;49.926;8.608;2023-07-20T05:28:43;7.38;;;2.70;;
4305;SDS011;2166;49.926;8.608;2023-07-20T05:31:11;8.30;;;2.00;;
4305;SDS011;2166;49.926;8.608;2023-07-20T05:33:40;4.70;;;2.35;;
4305;SDS011;2166;49.926;8.608;2023-07-20T05:36:08;3.90;;;2.45;;
4305;SDS011;2166;49.926;8.608;2023-07-20T05:38:38;7.07;;;3.15;;
4305;SDS011;2166;49.926;8.608;2023-07-20T05:41:06;4.78;;;2.45;;
4305;SDS011;2166;49.926;8.608;2023-07-20T05:43:37;7.60;;;2.55;;
4305;SDS011;2166;49.926;8.608;2023-07-20T05:46:05;5.55;;;2.08;;
4305;SDS011;2166;49.926;8.608;2023-07-20T05:48:34;11.35;;;2.80;;
4305;SDS011;2166;49.926;8.608;2023-07-20T05:51:02;4.60;;;2.20;;
4305;SDS011;2166;49.926;8.608;2023-07-20T05:53:31;6.20;;;2.50;;
4305;SDS011;2166;49.926;8.608;2023-07-20T05:56:00;4.35;;;1.83;;
4305;SDS011;2166;49.926;8.608;2023-07-20T05:58:29;7.18;;;2.60;;
4305;SDS011;2166;49.926;8.608;2023-07-20T06:00:58;7.18;;;2.45;;
4305;SDS011;2166;49.926;8.608;2023-07-20T06:03:26;3.88;;;2.03;;
4305;SDS011;2166;49.926;8.608;2023-07-20T06:05:57;4.82;;;2.08;;
4305;SDS011;2166;49.926;8.608;2023-07-20T06:08:27;3.80;;;1.73;;
4305;SDS011;2166;49.926;8.608;2023-07-20T06:10:56;4.22;;;2.28;;
4305;SDS011;2166;49.926;8.608;2023-07-20T06:13:26;4.30;;;2.15;;
4305;SDS011;2166;49.926;8.608;2023-07-20T06:15:54;6.10;;;1.85;;
4305;SDS011;2166;49.926;8.608;2023-07-20T06:18:23;8.75;;;2.10;;
4305;SDS011;2166;49.926;8.608;2023-07-20T06:20:51;6.10;;;2.10;;
4305;SDS011;2166;49.926;8.608;2023-07-20T06:23:20;7.28;;;2.42;;
4305;SDS011;2166;49.926;8.608;2023-07-20T06:25:48;6.07;;;1.98;;
4305;SDS011;2166;49.926;8.608;2023-07-20T06:28:17;9.68;;;2.15;;
4305;SDS011;2166;49.926;8.608;2023-07-20T06:30:47;9.82;;;2.60;;
4305;SDS011;2166;49.926;8.608;2023-07-20T06:33:17;7.47;;;1.90;;
4305;SDS011;2166;49.926;8.608;2023-07-20T06:35:46;6.30;;;2.13;;
4305;SDS011;2166;49.926;8.608;2023-07-20T06:38:14;5.63;;;2.15;;
4305;SDS011;2166;49.926;8.608;2023-07-20T06:40:46;4.35;;;2.03;;
4305;SDS011;2166;49.926;8.608;2023-07-20T06:43:14;8.05;;;1.98;;
4305;SDS011;2166;49.926;8.608;2023-07-20T06:45:52;4.60;;;2.03;;
4305;SDS011;2166;49.926;8.608;2023-07-20T06:48:24;5.97;;;1.90;;
4305;SDS011;2166;49.926;8.608;2023-07-20T06:50:53;3.40;;;1.45;;
4305;SDS011;2166;49.926;8.608;2023-07-20T06:53:21;3.40;;;1.80;;
4305;SDS011;2166;49.926;8.608;2023-07-20T06:55:49;4.00;;;1.73;;
4305;SDS011;2166;49.926;8.608;2023-07-20T06:58:17;7.10;;;1.48;;
4305;SDS011;2166;49.926;8.608;2023-07-20T07:00:48;6.78;;;2.03;;
4305;SDS011;2166;49.926;8.608;2023-07-20T07:03:17;5.07;;;1.70;;
4305;SDS011;2166;49.926;8.608;2023-07-20T07:05:54;8.65;;;1.60;;
4305;SDS011;2166;49.926;8.608;2023-07-20T07:08:23;4.47;;;1.67;;
4305;SDS011;2166;49.926;8.608;2023-07-20T07:10:52;3.70;;;1.65;;
4305;SDS011;2166;49.926;8.608;2023-07-20T07:13:20;6.03;;;1.83;;
4305;SDS011;2166;49.926;8.608;2023-07-20T07:15:50;5.97;;;1.75;;
4305;SDS011;2166;49.926;8.608;2023-07-20T07:18:20;7.22;;;1.85;;
4305;SDS011;2166;49.926;8.608;2023-07-20T07:20:50;5.22;;;1.80;;
4305;SDS011;2166;49.926;8.608;2023-07-20T07:23:19;8.98;;;2.53;;
4305;SDS011;2166;49.926;8.608;2023-07-20T07:25:48;8.25;;;2.05;;
4305;SDS011;2166;49.926;8.608;2023-07-20T07:28:16;9.77;;;2.13;;
4305;SDS011;2166;49.926;8.608;2023-07-20T07:30:45;4.72;;;1.33;;
4305;SDS011;2166;49.926;8.608;2023-07-20T07:33:13;6.07;;;1.58;;
4305;SDS011;2166;49.926;8.608;2023-07-20T07:35:43;4.43;;;1.70;;
4305;SDS011;2166;49.926;8.608;2023-07-20T07:38:11;6.70;;;1.50;;
4305;SDS011;2166;49.926;8.608;2023-07-20T07:40:44;7.68;;;1.90;;
4305;SDS011;2166;49.926;8.608;2023-07-20T07:43:13;4.60;;;1.33;;
4305;SDS011;2166;49.926;8.608;2023-07-20T07:45:41;4.60;;;1.27;;
4305;SDS011;2166;49.926;8.608;2023-07-20T07:48:10;5.95;;;1.63;;
4305;SDS011;2166;49.926;8.608;2023-07-20T07:50:39;3.17;;;1.48;;
4305;SDS011;2166;49.926;8.608;2023-07-20T07:53:09;4.78;;;1.52;;
4305;SDS011;2166;49.926;8.608;2023-07-20T07:55:37;5.60;;;2.03;;
4305;SDS011;2166;49.926;8.608;2023-07-20T07:58:05;8.73;;;1.95;;
4305;SDS011;2166;49.926;8.608;2023-07-20T08:00:33;4.43;;;1.88;;
4305;SDS011;2166;49.926;8.608;2023-07-20T08:03:01;4.25;;;1.48;;
4305;SDS011;2166;49.926;8.608;2023-07-20T08:05:30;7.82;;;1.50;;
4305;SDS011;2166;49.926;8.608;2023-07-20T08:07:59;5.65;;;1.67;;
4305;SDS011;2166;49.926;8.608;2023-07-20T08:10:29;8.57;;;2.05;;
4305;SDS011;2166;49.926;8.608;2023-07-20T08:12:57;5.80;;;1.80;;
4305;SDS011;2166;49.926;8.608;2023-07-20T08:15:25;4.78;;;1.98;;
4305;SDS011;2166;49.926;8.608;2023-07-20T08:17:54;4.28;;;1.50;;
4305;SDS011;2166;49.926;8.608;2023-07-20T08:20:23;4.00;;;1.85;;
4305;SDS011;2166;49.926;8.608;2023-07-20T08:22:53;3.72;;;1.38;;
4305;SDS011;2166;49.926;8.608;2023-07-20T08:25:22;4.63;;;1.60;;
4305;SDS011;2166;49.926;8.608;2023-07-20T08:27:55;3.17;;;1.10;;
4305;SDS011;2166;49.926;8.608;2023-07-20T08:30:23;5.07;;;1.40;;
4305;SDS011;2166;49.926;8.608;2023-07-20T08:32:51;3.17;;;1.60;;
4305;SDS011;2166;49.926;8.608;2023-07-20T08:35:20;5.95;;;1.33;;
4305;SDS011;2166;49.926;8.608;2023-07-20T08:37:48;5.20;;;1.70;;
4305;SDS011;2166;49.926;8.608;2023-07-20T08:40:17;1.95;;;1.52;;
4305;SDS011;2166;49.926;8.608;2023-07-20T08:42:45;6.25;;;1.63;;
4305;SDS011;2166;49.926;8.608;2023-07-20T08:45:16;4.05;;;1.48;;
4305;SDS011;2166;49.926;8.608;2023-07-20T08:47:45;3.35;;;1.58;;
4305;SDS011;2166;49.926;8.608;2023-07-20T08:50:16;4.78;;;1.80;;
4305;SDS011;2166;49.926;8.608;2023-07-20T08:52:45;4.57;;;1.38;;
4305;SDS011;2166;49.926;8.608;2023-07-20T08:55:14;6.47;;;1.50;;
4305;SDS011;2166;49.926;8.608;2023-07-20T08:57:43;3.80;;;1.40;;
4305;SDS011;2166;49.926;8.608;2023-07-20T09:00:17;3.53;;;1.17;;
4305;SDS011;2166;49.926;8.608;2023-07-20T09:02:49;3.28;;;1.77;;
4305;SDS011;2166;49.926;8.608;2023-07-20T09:05:18;3.75;;;1.73;;
4305;SDS011;2166;49.926;8.608;2023-07-20T09:07:47;3.78;;;1.23;;
4305;SDS011;2166;49.926;8.608;2023-07-20T09:10:15;5.35;;;1.50;;
4305;SDS011;2166;49.926;8.608;2023-07-20T09:12:45;1.92;;;0.98;;
4305;SDS011;2166;49.926;8.608;2023-07-20T09:15:13;2.22;;;1.10;;
4305;SDS011;2166;49.926;8.608;2023-07-20T09:17:46;2.53;;;1.10;;
4305;SDS011;2166;49.926;8.608;2023-07-20T09:20:15;10.40;;;1.42;;
4305;SDS011;2166;49.926;8.608;2023-07-20T09:22:48;3.47;;;1.30;;
4305;SDS011;2166;49.926;8.608;2023-07-20T09:25:19;4.43;;;0.88;;
4305;SDS011;2166;49.926;8.608;2023-07-20T09:27:50;3.13;;;1.33;;
4305;SDS011;2166;49.926;8.608;2023-07-20T09:30:18;3.35;;;1.30;;
4305;SDS011;2166;49.926;8.608;2023-07-20T09:32:59;5.72;;;1.25;;
4305;SDS011;2166;49.926;8.608;2023-07-20T09:35:27;4.00;;;1.42;;
4305;SDS011;2166;49.926;8.608;2023-07-20T09:38:08;3.70;;;1.00;;
4305;SDS011;2166;49.926;8.608;2023-07-20T09:40:40;3.00;;;1.02;;
4305;SDS011;2166;49.926;8.608;2023-07-20T09:43:12;2.67;;;1.10;;
4305;SDS011;2166;49.926;8.608;2023-07-20T09:45:46;2.60;;;1.00;;
4305;SDS011;2166;49.926;8.608;2023-07-20T09:48:22;2.63;;;1.02;;
4305;SDS011;2166;49.926;8.608;2023-07-20T09:50:55;2.85;;;1.00;;
4305;SDS011;2166;49.926;8.608;2023-07-20T09:53:25;5.18;;;1.30;;
4305;SDS011;2166;49.926;8.608;2023-07-20T09:55:54;2.67;;;0.90;;
4305;SDS011;2166;49.926;8.608;2023-07-20T09:58:22;4.35;;;0.88;;
4305;SDS011;2166;49.926;8.608;2023-07-20T10:00:54;2.80;;;0.98;;
4305;SDS011;2166;49.926;8.608;2023-07-20T10:03:27;4.38;;;0.90;;
4305;SDS011;2166;49.926;8.608;2023-07-20T10:06:03;1.60;;;0.98;;
4305;SDS011;2166;49.926;8.608;2023-07-20T10:08:35;2.22;;;0.80;;
4305;SDS011;2166;49.926;8.608;2023-07-20T10:11:10;2.45;;;0.90;;
4305;SDS011;2166;49.926;8.608;2023-07-20T10:13:43;2.95;;;1.05;;
4305;SDS011;2166;49.926;8.608;2023-07-20T10:16:14;4.10;;;0.82;;
4305;SDS011;2166;49.926;8.608;2023-07-20T10:18:54;4.18;;;1.20;;
4305;SDS011;2166;49.926;8.608;2023-07-20T10:21:27;2.05;;;0.63;;
4305;SDS011;2166;49.926;8.608;2023-07-20T10:24:00;1.02;;;0.65;;
4305;SDS011;2166;49.926;8.608;2023-07-20T10:26:30;2.17;;;1.00;;
4305;SDS011;2166;49.926;8.608;2023-07-20T10:29:02;4.07;;;0.95;;
4305;SDS011;2166;49.926;8.608;2023-07-20T10:31:32;6.53;;;1.20;;
4305;SDS011;2166;49.926;8.608;2023-07-20T10:34:03;2.17;;;1.00;;
4305;SDS011;2166;49.926;8.608;2023-07-20T10:36:32;2.78;;;0.98;;
4305;SDS011;2166;49.926;8.608;2023-07-20T10:39:14;1.95;;;1.20;;
4305;SDS011;2166;49.926;8.608;2023-07-20T10:41:53;4.65;;;1.45;;
4305;SDS011;2166;49.926;8.608;2023-07-20T10:44:28;3.85;;;1.33;;
4305;SDS011;2166;49.926;8.608;2023-07-20T10:46:58;2.00;;;1.10;;
4305;SDS011;2166;49.926;8.608;2023-07-20T10:49:32;1.90;;;1.25;;
4305;SDS011;2166;49.926;8.608;2023-07-20T10:52:03;2.17;;;1.33;;
4305;SDS011;2166;49.926;8.608;2023-07-20T10:54:46;3.08;;;1.30;;
4305;SDS011;2166;49.926;8.608;2023-07-20T10:57:22;4.00;;;1.38;;
4305;SDS011;2166;49.926;8.608;2023-07-20T11:00:07;5.63;;;1.00;;
4305;SDS011;2166;49.926;8.608;2023-07-20T11:02:42;4.07;;;1.10;;
4305;SDS011;2166;49.926;8.608;2023-07-20T11:08:10;1.88;;;0.82;;
4305;SDS011;2166;49.926;8.608;2023-07-20T11:10:40;4.50;;;1.20;;
4305;SDS011;2166;49.926;8.608;2023-07-20T11:13:18;4.15;;;1.10;;
4305;SDS011;2166;49.926;8.608;2023-07-20T11:16:01;2.15;;;1.00;;
4305;SDS011;2166;49.926;8.608;2023-07-20T11:18:33;2.50;;;0.80;;
4305;SDS011;2166;49.926;8.608;2023-07-20T11:21:09;4.65;;;1.35;;
4305;SDS011;2166;49.926;8.608;2023-07-20T11:23:38;3.50;;;1.10;;
4305;SDS011;2166;49.926;8.608;2023-07-20T11:26:07;3.88;;;1.10;;
4305;SDS011;2166;49.926;8.608;2023-07-20T11:28:36;3.65;;;1.10;;
4305;SDS011;2166;49.926;8.608;2023-07-20T11:31:04;1.63;;;0.70;;
4305;SDS011;2166;49.926;8.608;2023-07-20T11:33:33;3.67;;;0.80;;
4305;SDS011;2166;49.926;8.608;2023-07-20T11:36:01;2.22;;;0.82;;
4305;SDS011;2166;49.926;8.608;2023-07-20T11:38:53;1.60;;;0.70;;
4305;SDS011;2166;49.926;8.608;2023-07-20T11:41:22;1.60;;;0.80;;
4305;SDS011;2166;49.926;8.608;2023-07-20T11:43:52;2.50;;;0.85;;
4305;SDS011;2166;49.926;8.608;2023-07-20T11:46:21;3.95;;;0.88;;
4305;SDS011;2166;49.926;8.608;2023-07-20T11:48:55;2.53;;;0.73;;
4305;SDS011;2166;49.926;8.608;2023-07-20T11:51:24;1.25;;;0.60;;
4305;SDS011;2166;49.926;8.608;2023-07-20T11:53:55;4.18;;;0.80;;
4305;SDS011;2166;49.926;8.608;2023-07-20T11:56:24;2.45;;;1.23;;
4305;SDS011;2166;49.926;8.608;2023-07-20T11:58:54;1.30;;;1.10;;
4305;SDS011;2166;49.926;8.608;2023-07-20T12:01:25;2.90;;;1.10;;
4305;SDS011;2166;49.926;8.608;2023-07-20T12:03:56;3.10;;;1.02;;
4305;SDS011;2166;49.926;8.608;2023-07-20T12:06:25;4.03;;;1.25;;
4305;SDS011;2166;49.926;8.608;2023-07-20T12:08:57;4.72;;;1.30;;
4305;SDS011;2166;49.926;8.608;2023-07-20T12:11:33;2.83;;;0.90;;
4305;SDS011;2166;49.926;8.608;2023-07-20T12:14:02;7.97;;;0.98;;
4305;SDS011;2166;49.926;8.608;2023-07-20T12:16:42;6.47;;;0.90;;
4305;SDS011;2166;49.926;8.608;2023-07-20T12:19:11;5.70;;;0.90;;
4305;SDS011;2166;49.926;8.608;2023-07-20T12:21:41;2.78;;;0.95;;
4305;SDS011;2166;49.926;8.608;2023-07-20T12:24:11;4.88;;;0.80;;
4305;SDS011;2166;49.926;8.608;2023-07-20T12:26:40;4.57;;;0.90;;
4305;SDS011;2166;49.926;8.608;2023-07-20T12:29:08;2.88;;;1.00;;
4305;SDS011;2166;49.926;8.608;2023-07-20T12:31:37;2.25;;;0.90;;
4305;SDS011;2166;49.926;8.608;2023-07-20T12:34:06;1.95;;;0.70;;
4305;SDS011;2166;49.926;8.608;2023-07-20T12:36:36;1.08;;;0.80;;
4305;SDS011;2166;49.926;8.608;2023-07-20T12:39:04;6.80;;;1.30;;
4305;SDS011;2166;49.926;8.608;2023-07-20T12:41:34;4.40;;;1.10;;
4305;SDS011;2166;49.926;8.608;2023-07-20T12:44:02;2.33;;;1.02;;
4305;SDS011;2166;49.926;8.608;2023-07-20T12:46:31;2.63;;;0.93;;
4305;SDS011;2166;49.926;8.608;2023-07-20T12:49:03;3.25;;;1.00;;
4305;SDS011;2166;49.926;8.608;2023-07-20T12:51:31;4.18;;;1.25;;
4305;SDS011;2166;49.926;8.608;2023-07-20T12:54:00;2.38;;;0.95;;
4305;SDS011;2166;49.926;8.608;2023-07-20T12:56:28;3.70;;;1.02;;
4305;SDS011;2166;49.926;8.608;2023-07-20T12:59:01;10.38;;;1.00;;
4305;SDS011;2166;49.926;8.608;2023-07-20T13:01:29;3.72;;;1.52;;
4305;SDS011;2166;49.926;8.608;2023-07-20T13:03:58;3.97;;;1.40;;
4305;SDS011;2166;49.926;8.608;2023-07-20T13:06:29;2.72;;;1.10;;
4305;SDS011;2166;49.926;8.608;2023-07-20T13:09:00;4.75;;;0.90;;
4305;SDS011;2166;49.926;8.608;2023-07-20T13:11:30;3.30;;;1.40;;
4305;SDS011;2166;49.926;8.608;2023-07-20T13:13:58;2.88;;;0.90;;
4305;SDS011;2166;49.926;8.608;2023-07-20T13:16:28;5.90;;;2.85;;
4305;SDS011;2166;49.926;8.608;2023-07-20T13:18:57;3.45;;;0.98;;
4305;SDS011;2166;49.926;8.608;2023-07-20T13:21:25;4.63;;;1.58;;
4305;SDS011;2166;49.926;8.608;2023-07-20T13:23:54;5.30;;;0.85;;
4305;SDS011;2166;49.926;8.608;2023-07-20T13:26:24;3.30;;;1.02;;
4305;SDS011;2166;49.926;8.608;2023-07-20T13:28:52;2.65;;;0.90;;
4305;SDS011;2166;49.926;8.608;2023-07-20T13:31:23;1.65;;;0.95;;
4305;SDS011;2166;49.926;8.608;2023-07-20T13:33:54;2.65;;;1.08;;
4305;SDS011;2166;49.926;8.608;2023-07-20T13:36:26;2.60;;;1.10;;
4305;SDS011;2166;49.926;8.608;2023-07-20T13:38:55;4.22;;;0.82;;
4305;SDS011;2166;49.926;8.608;2023-07-20T13:41:30;1.60;;;0.95;;
4305;SDS011;2166;49.926;8.608;2023-07-20T13:44:01;2.80;;;1.10;;
4305;SDS011;2166;49.926;8.608;2023-07-20T13:46:33;2.78;;;1.20;;
4305;SDS011;2166;49.926;8.608;2023-07-20T13:49:05;3.25;;;1.00;;
4305;SDS011;2166;49.926;8.608;2023-07-20T13:51:36;2.20;;;1.13;;
4305;SDS011;2166;49.926;8.608;2023-07-20T13:54:05;3.00;;;1.13;;
4305;SDS011;2166;49.926;8.608;2023-07-20T13:56:36;2.92;;;0.90;;
4305;SDS011;2166;49.926;8.608;2023-07-20T13:59:08;6.68;;;1.17;;
4305;SDS011;2166;49.926;8.608;2023-07-20T14:01:37;2.63;;;1.20;;
4305;SDS011;2166;49.926;8.608;2023-07-20T14:04:06;5.97;;;1.27;;
4305;SDS011;2166;49.926;8.608;2023-07-20T14:06:35;1.92;;;0.88;;
4305;SDS011;2166;49.926;8.608;2023-07-20T14:09:04;2.72;;;1.27;;
4305;SDS011;2166;49.926;8.608;2023-07-20T14:11:33;3.08;;;0.90;;
4305;SDS011;2166;49.926;8.608;2023-07-20T14:14:04;3.05;;;1.17;;
4305;SDS011;2166;49.926;8.608;2023-07-20T14:16:33;3.45;;;1.30;;
4305;SDS011;2166;49.926;8.608;2023-07-20T14:19:03;2.63;;;0.90;;
4305;SDS011;2166;49.926;8.608;2023-07-20T14:21:32;3.38;;;1.10;;
4305;SDS011;2166;49.926;8.608;2023-07-20T14:24:01;5.35;;;1.27;;
4305;SDS011;2166;49.926;8.608;2023-07-20T14:26:29;1.92;;;1.00;;
4305;SDS011;2166;49.926;8.608;2023-07-20T14:28:59;3.25;;;0.90;;
4305;SDS011;2166;49.926;8.608;2023-07-20T14:31:28;4.53;;;1.23;;
4305;SDS011;2166;49.926;8.608;2023-07-20T14:33:58;2.38;;;0.90;;
4305;SDS011;2166;49.926;8.608;2023-07-20T14:36:28;4.32;;;1.10;;
4305;SDS011;2166;49.926;8.608;2023-07-20T14:39:00;3.10;;;1.05;;
4305;SDS011;2166;49.926;8.608;2023-07-20T14:41:28;3.00;;;0.70;;
4305;SDS011;2166;49.926;8.608;2023-07-20T14:43:56;2.42;;;0.90;;
4305;SDS011;2166;49.926;8.608;2023-07-20T14:46:25;2.20;;;0.95;;
4305;SDS011;2166;49.926;8.608;2023-07-20T14:48:54;1.92;;;1.00;;
4305;SDS011;2166;49.926;8.608;2023-07-20T14:51:23;3.28;;;1.02;;
4305;SDS011;2166;49.926;8.608;2023-07-20T14:54:06;3.38;;;0.90;;
4305;SDS011;2166;49.926;8.608;2023-07-20T14:56:34;1.45;;;0.60;;
4305;SDS011;2166;49.926;8.608;2023-07-20T14:59:04;6.07;;;0.90;;
4305;SDS011;2166;49.926;8.608;2023-07-20T15:01:32;3.33;;;0.98;;
4305;SDS011;2166;49.926;8.608;2023-07-20T15:04:01;3.95;;;1.10;;
4305;SDS011;2166;49.926;8.608;2023-07-20T15:06:29;2.95;;;1.00;;
4305;SDS011;2166;49.926;8.608;2023-07-20T15:08:58;2.03;;;0.85;;
4305;SDS011;2166;49.926;8.608;2023-07-20T15:11:29;3.10;;;0.80;;
4305;SDS011;2166;49.926;8.608;2023-07-20T15:13:58;2.83;;;0.93;;
4305;SDS011;2166;49.926;8.608;2023-07-20T15:16:27;3.67;;;0.80;;
4305;SDS011;2166;49.926;8.608;2023-07-20T15:18:55;1.80;;;1.10;;
4305;SDS011;2166;49.926;8.608;2023-07-20T15:21:24;1.70;;;0.90;;
4305;SDS011;2166;49.926;8.608;2023-07-20T15:23:56;1.70;;;0.93;;
4305;SDS011;2166;49.926;8.608;2023-07-20T15:26:25;4.00;;;1.00;;
4305;SDS011;2166;49.926;8.608;2023-07-20T15:28:54;3.22;;;0.82;;
4305;SDS011;2166;49.926;8.608;2023-07-20T15:31:23;2.47;;;1.30;;
4305;SDS011;2166;49.926;8.608;2023-07-20T15:33:55;5.63;;;1.10;;
4305;SDS011;2166;49.926;8.608;2023-07-20T15:36:24;4.15;;;0.93;;
4305;SDS011;2166;49.926;8.608;2023-07-20T15:38:52;2.20;;;1.13;;
4305;SDS011;2166;49.926;8.608;2023-07-20T15:41:20;4.53;;;1.08;;